Portada
METAR-TAF:

METAR-TAF

Aeropuertos :

Malé, Maldivas

Aeropuerto Internacional de Malé

latitud: 04-12N, longitud: 073-32E, altitud: 2 m

Observación

El informe se hizo hace 1 hora y 17 minutos, a las 22:00 UTC
Viento 6 kt del sur-suroeste
Temperatura 28°C
Humedad 84%
Presión 1008 hPa
Visibilidad 10 km o más
Escasas nubes a una altura de 1800 ft, Cumulus congestus.
Cielo nuboso a una altura de 27000 ft

METAR: VRMM 212200Z 21006KT 9999 FEW018TCU BKN270 28/25 Q1008 NOSIG

Hora: 04:17 (23:17 UTC)

Pronóstico

El informe se hizo hace 6 horas y 17 minutos, a las 17:00 UTC
Pronóstico válido del 21 a las 18 UTC al 22 a las 24 UTC
Viento 7 kt del suroeste
Visibilidad 10 km o más
Escasas nubes a una altura de 1800 ft
Temporalmente
del 21 a las 18 UTC al 21 a las 24 UTC
Visibilidad: 6000 m
Escasas nubes a una altura de 1800 ft, Cumulonimbus.
chaparrones de lluvia

TAF: VRMM 211700Z 2118/2224 22007KT 9999 FEW018 TEMPO 2118/2124 6000 -SHRA FEW018CB

Observaciones y pronósticos meteorológicos de más de 4000 aeropuertos (mensajes METAR y TAF).

Los puntos amarillos y rojos representan las estaciones disponibles.

Ponga el ratón en el punto deseado para ver el nombre de la estación.

Haga clic para ver las observaciones y los pronósticos meteorológicos.

Para cambiar el mapa : haga clic en los botones verdes con una cruz de color negro para hacer un zoom, en el botón verde con un guión para alejar o en las flechas verdes para mapas adyacentes.


METAR-TAF: